createdAt,value
2018-12-13T00:00:46.439Z,1.59
2018-12-13T00:01:46.391Z,1.60
2018-12-13T00:02:46.366Z,1.65
2018-12-13T00:03:46.329Z,1.66
2018-12-13T00:04:46.266Z,1.66
2018-12-13T00:05:46.213Z,1.66
2018-12-13T00:06:46.196Z,1.69
2018-12-13T00:07:46.140Z,1.69
2018-12-13T00:08:46.076Z,1.66
2018-12-13T00:09:46.026Z,1.65
2018-12-13T00:10:45.999Z,1.68
2018-12-13T00:11:45.969Z,1.68
2018-12-13T00:12:45.979Z,1.59
2018-12-13T00:13:45.902Z,1.62
2018-12-13T00:14:45.810Z,1.54
2018-12-13T00:15:45.754Z,1.63
2018-12-13T00:16:45.705Z,1.54
2018-12-13T00:17:45.745Z,1.59
2018-12-13T00:18:45.654Z,1.60
2018-12-13T00:19:45.561Z,1.62
2018-12-13T00:20:45.569Z,1.62
2018-12-13T00:21:45.477Z,1.58
2018-12-13T00:22:45.463Z,1.58
2018-12-13T00:23:45.405Z,1.58
2018-12-13T00:24:45.387Z,1.65
2018-12-13T00:25:45.325Z,1.65
2018-12-13T00:26:45.262Z,1.48
2018-12-13T00:27:45.251Z,1.59
2018-12-13T00:28:45.163Z,1.50
2018-12-13T00:29:45.135Z,1.59
2018-12-13T00:30:45.092Z,1.48
2018-12-13T00:31:45.011Z,1.42
2018-12-13T00:32:44.969Z,1.54
2018-12-13T00:33:44.945Z,1.62
2018-12-13T00:34:44.878Z,1.58
2018-12-13T00:35:44.859Z,1.50
2018-12-13T00:36:44.781Z,1.58
2018-12-13T00:37:44.741Z,1.58
2018-12-13T00:38:44.702Z,1.62
2018-12-13T00:39:44.679Z,1.58
2018-12-13T00:40:44.610Z,1.65
2018-12-13T00:41:44.558Z,1.65
2018-12-13T00:42:44.523Z,1.66
2018-12-13T00:43:44.488Z,1.66
2018-12-13T00:44:44.425Z,1.55
2018-12-13T00:45:44.428Z,1.59
2018-12-13T00:46:44.340Z,1.58
2018-12-13T00:47:44.304Z,1.62
2018-12-13T00:48:44.252Z,1.62
2018-12-13T00:49:44.196Z,1.66
2018-12-13T00:50:44.148Z,1.63
2018-12-13T00:51:44.117Z,1.66
2018-12-13T00:52:44.068Z,1.54
2018-12-13T00:53:44.046Z,1.52
2018-12-13T00:54:43.987Z,1.37
2018-12-13T00:55:43.944Z,1.41
2018-12-13T00:56:43.897Z,1.48
2018-12-13T00:57:43.897Z,1.45
2018-12-13T00:58:43.813Z,1.36
2018-12-13T00:59:43.801Z,1.48
2018-12-13T01:00:43.695Z,1.52
2018-12-13T01:01:43.688Z,1.42
2018-12-13T01:02:43.622Z,1.44
2018-12-13T01:03:43.614Z,1.51
2018-12-13T01:04:43.550Z,1.59
2018-12-13T01:05:43.496Z,1.44
2018-12-13T01:06:46.113Z,1.51
2018-12-13T01:07:43.396Z,1.50
2018-12-13T01:08:43.360Z,1.41
2018-12-13T01:09:43.295Z,1.52
2018-12-13T01:10:43.248Z,1.48
2018-12-13T01:11:43.198Z,1.52
2018-12-13T01:12:43.202Z,1.44
2018-12-13T01:13:43.115Z,1.47
2018-12-13T01:14:43.098Z,1.48
2018-12-13T01:15:43.016Z,1.41
2018-12-13T01:16:42.996Z,1.48
2018-12-13T01:17:42.968Z,1.32
2018-12-13T01:18:42.889Z,1.50
2018-12-13T01:19:42.823Z,1.41
2018-12-13T01:20:42.834Z,1.48
2018-12-13T01:21:42.783Z,1.37
2018-12-13T01:22:42.700Z,1.37
2018-12-13T01:23:42.691Z,1.37
2018-12-13T01:24:42.657Z,1.51
2018-12-13T01:25:42.588Z,1.37
2018-12-13T01:26:42.515Z,1.51
2018-12-13T01:27:42.537Z,1.42
2018-12-13T01:28:42.427Z,1.37
2018-12-13T01:29:42.378Z,1.41
2018-12-13T01:30:42.383Z,1.40
2018-12-13T01:31:42.288Z,1.42
2018-12-13T01:34:15.700Z,1.42
2018-12-13T01:35:15.643Z,1.47
2018-12-13T01:37:08.614Z,1.37
2018-12-13T01:38:08.643Z,1.48
2018-12-13T01:40:01.617Z,1.37
2018-12-13T01:41:01.710Z,1.34
2018-12-13T01:44:26.771Z,1.29
2018-12-13T01:45:26.666Z,1.27
2018-12-13T01:47:21.350Z,1.22
2018-12-13T01:48:21.050Z,1.20
2018-12-13T01:50:15.222Z,1.24
2018-12-13T01:51:14.316Z,1.24
2018-12-13T01:53:08.020Z,1.26
2018-12-13T01:54:07.875Z,1.27
2018-12-13T01:56:00.961Z,1.32
2018-12-13T01:57:00.847Z,1.29
2018-12-13T01:58:53.926Z,1.22
2018-12-13T01:59:54.510Z,1.20
2018-12-13T02:01:48.284Z,1.18
2018-12-13T02:02:48.365Z,1.16
2018-12-13T02:03:48.181Z,1.15
2018-12-13T02:04:48.266Z,1.15
2018-12-13T02:05:48.153Z,1.09
2018-12-13T02:06:47.985Z,1.14
2018-12-13T02:07:47.966Z,1.11
2018-12-13T02:08:47.915Z,1.15
2018-12-13T02:09:47.854Z,1.15
2018-12-13T02:10:47.810Z,1.12
2018-12-13T02:11:47.792Z,1.15
2018-12-13T02:12:47.746Z,1.14
2018-12-13T02:13:47.817Z,1.12
2018-12-13T02:14:47.628Z,1.18
2018-12-13T02:15:47.602Z,1.12
2018-12-13T02:16:47.561Z,1.14
2018-12-13T02:17:47.517Z,1.15
2018-12-13T02:18:47.964Z,1.15
2018-12-13T02:19:47.501Z,1.16
2018-12-13T02:20:47.377Z,1.08
2018-12-13T02:21:47.293Z,1.09
2018-12-13T02:22:47.261Z,0.97
2018-12-13T02:23:47.222Z,1.08
2018-12-13T02:24:47.178Z,1.09
2018-12-13T02:25:47.135Z,1.09
2018-12-13T02:26:47.095Z,1.00
2018-12-13T02:27:47.018Z,1.02
2018-12-13T02:28:46.995Z,1.04
2018-12-13T02:29:46.977Z,0.96
2018-12-13T02:30:46.907Z,1.05
2018-12-13T02:31:46.846Z,0.98
2018-12-13T02:32:46.793Z,1.04
2018-12-13T02:33:46.792Z,1.04
2018-12-13T02:34:46.722Z,0.97
2018-12-13T02:35:46.694Z,1.02
2018-12-13T02:36:46.614Z,0.96
2018-12-13T02:37:46.567Z,1.05
2018-12-13T02:38:46.521Z,0.90
2018-12-13T02:39:46.491Z,1.05
2018-12-13T02:40:46.428Z,1.00
2018-12-13T02:41:46.419Z,1.02
2018-12-13T02:42:46.342Z,0.96
2018-12-13T02:43:46.299Z,0.94
2018-12-13T02:44:46.245Z,0.96
2018-12-13T02:45:46.213Z,0.94
2018-12-13T02:46:46.152Z,1.00
2018-12-13T02:47:46.108Z,1.02
2018-12-13T02:48:46.071Z,1.00
2018-12-13T02:49:46.017Z,0.97
2018-12-13T02:50:45.974Z,0.96
2018-12-13T02:51:45.959Z,0.91
2018-12-13T02:52:45.880Z,0.94
2018-12-13T02:53:45.854Z,0.79
2018-12-13T02:54:45.824Z,0.79
2018-12-13T02:55:45.765Z,0.80
2018-12-13T02:56:45.707Z,0.79
2018-12-13T02:57:45.655Z,0.78
2018-12-13T02:58:45.623Z,0.86
2018-12-13T02:59:45.607Z,0.88
2018-12-13T03:00:45.536Z,0.87
2018-12-13T03:01:45.478Z,0.83
2018-12-13T03:02:45.445Z,0.84
2018-12-13T03:03:45.392Z,0.87
2018-12-13T03:04:45.363Z,0.78
2018-12-13T03:05:45.287Z,0.86
2018-12-13T03:06:45.238Z,0.87
2018-12-13T03:07:45.184Z,0.86
2018-12-13T03:08:45.154Z,0.93
2018-12-13T03:09:45.098Z,0.84
2018-12-13T03:10:45.082Z,0.83
2018-12-13T03:11:45.023Z,0.83
2018-12-13T03:12:44.971Z,0.88
2018-12-13T03:13:44.915Z,0.83
2018-12-13T03:14:44.895Z,0.86
2018-12-13T03:15:44.821Z,0.86
2018-12-13T03:16:44.815Z,0.84
2018-12-13T03:17:44.731Z,0.87
2018-12-13T03:18:44.722Z,0.88
2018-12-13T03:19:44.680Z,0.88
2018-12-13T03:20:44.589Z,0.88
2018-12-13T03:21:44.549Z,0.88
2018-12-13T03:22:44.524Z,0.80
2018-12-13T03:23:44.454Z,0.90
2018-12-13T03:24:44.431Z,0.83
2018-12-13T03:25:44.360Z,0.87
2018-12-13T03:26:44.975Z,0.86
2018-12-13T03:27:44.427Z,0.84
2018-12-13T03:28:44.259Z,0.86
2018-12-13T03:29:44.216Z,0.87
2018-12-13T03:30:44.131Z,0.84
2018-12-13T03:31:44.095Z,0.84
2018-12-13T03:32:44.057Z,0.88
2018-12-13T03:33:44.070Z,0.83
2018-12-13T03:34:43.942Z,0.86
2018-12-13T03:35:44.048Z,0.84
2018-12-13T03:36:43.870Z,0.86
2018-12-13T03:37:43.997Z,0.88
2018-12-13T03:38:43.792Z,0.86
2018-12-13T03:39:43.730Z,0.86
2018-12-13T03:40:43.698Z,0.87
2018-12-13T03:41:43.672Z,0.78
2018-12-13T03:42:43.603Z,0.86
2018-12-13T03:43:43.531Z,0.93
2018-12-13T03:44:43.482Z,0.83
2018-12-13T03:45:43.440Z,0.96
2018-12-13T03:46:43.397Z,0.94
2018-12-13T03:47:43.374Z,0.86
2018-12-13T03:48:43.298Z,0.91
2018-12-13T03:49:43.259Z,0.97
2018-12-13T03:50:43.245Z,0.91
2018-12-13T03:51:43.190Z,0.94
2018-12-13T03:52:43.157Z,0.84
2018-12-13T03:53:43.096Z,0.90
2018-12-13T03:54:43.029Z,0.93
2018-12-13T03:55:43.024Z,0.90
2018-12-13T03:56:42.947Z,0.93
2018-12-13T03:57:42.907Z,0.90
2018-12-13T03:58:42.891Z,0.88
2018-12-13T03:59:42.816Z,0.91
2018-12-13T04:00:42.777Z,0.91
2018-12-13T04:01:42.713Z,0.90
2018-12-13T04:02:42.810Z,0.88
2018-12-13T04:03:42.673Z,0.87
2018-12-13T04:04:42.595Z,0.96
2018-12-13T04:05:42.523Z,0.90
2018-12-13T04:06:42.520Z,0.88
2018-12-13T04:07:42.425Z,0.91
2018-12-13T04:08:42.405Z,0.94
2018-12-13T04:09:42.348Z,0.88
2018-12-13T04:10:42.385Z,0.96
2018-12-13T04:11:42.303Z,0.91
2018-12-13T04:12:42.217Z,0.91
2018-12-13T04:13:42.159Z,0.96
2018-12-13T04:14:42.155Z,0.90
2018-12-13T04:15:42.115Z,0.90
2018-12-13T04:16:42.032Z,0.98
2018-12-13T04:17:42.019Z,1.00
2018-12-13T04:18:41.919Z,0.96
2018-12-13T04:19:41.933Z,0.96
2018-12-13T04:20:41.870Z,0.97
2018-12-13T04:21:41.803Z,0.97
2018-12-13T04:22:41.828Z,0.94
2018-12-13T04:23:41.713Z,0.83
2018-12-13T04:24:41.721Z,0.93
2018-12-13T04:25:41.704Z,0.79
2018-12-13T04:26:41.583Z,0.84
2018-12-13T04:27:41.518Z,0.91
2018-12-13T04:28:41.480Z,0.84
2018-12-13T04:29:41.437Z,0.80
2018-12-13T04:30:41.383Z,0.84
2018-12-13T04:31:41.329Z,0.83
2018-12-13T04:32:41.297Z,0.90
2018-12-13T04:33:41.238Z,0.87
2018-12-13T04:34:41.190Z,0.79
2018-12-13T04:35:41.182Z,0.96
2018-12-13T04:36:41.147Z,0.94
2018-12-13T04:37:41.081Z,1.02
2018-12-13T04:38:41.054Z,0.94
2018-12-13T04:39:40.958Z,0.93
2018-12-13T04:40:40.936Z,0.78
2018-12-13T04:41:40.884Z,0.80
2018-12-13T04:42:40.832Z,0.87
2018-12-13T04:43:40.783Z,0.88
2018-12-13T04:44:40.763Z,0.87
2018-12-13T04:45:40.782Z,0.79
2018-12-13T04:46:40.684Z,0.80
2018-12-13T04:47:40.624Z,0.79
2018-12-13T04:48:40.563Z,0.87
2018-12-13T04:49:40.516Z,0.80
2018-12-13T04:50:40.456Z,0.84
2018-12-13T04:51:40.417Z,0.80
2018-12-13T04:52:40.368Z,0.86
2018-12-13T04:53:40.358Z,0.83
2018-12-13T04:54:40.275Z,0.83
2018-12-13T04:55:40.248Z,0.83
2018-12-13T04:56:40.180Z,0.88
2018-12-13T04:57:40.156Z,0.88
2018-12-13T04:58:40.105Z,0.83
2018-12-13T04:59:40.057Z,0.86
2018-12-13T05:00:40.022Z,0.84
2018-12-13T05:01:39.995Z,0.84
2018-12-13T05:02:40.003Z,0.83
2018-12-13T05:03:39.899Z,0.83
2018-12-13T05:04:39.837Z,0.80
2018-12-13T05:05:40.489Z,0.87
2018-12-13T05:06:39.742Z,0.80
2018-12-13T05:07:41.892Z,0.86
2018-12-13T05:08:39.652Z,0.80
2018-12-13T05:09:39.608Z,0.69
2018-12-13T05:10:39.551Z,0.68
2018-12-13T05:11:39.488Z,0.65
2018-12-13T05:12:39.465Z,0.62
2018-12-13T05:13:39.518Z,0.70
2018-12-13T05:14:39.361Z,0.61
2018-12-13T05:15:39.329Z,0.61
2018-12-13T05:16:39.282Z,0.62
2018-12-13T05:17:39.223Z,0.65
2018-12-13T05:18:39.182Z,0.61
2018-12-13T05:19:39.198Z,0.60
2018-12-13T05:20:39.111Z,0.53
2018-12-13T05:21:39.089Z,0.49
2018-12-13T05:22:39.001Z,0.55
2018-12-13T05:23:38.944Z,0.53
2018-12-13T05:24:38.900Z,0.53
2018-12-13T05:25:38.853Z,0.55
2018-12-13T05:26:38.801Z,0.42
2018-12-13T05:27:38.763Z,0.47
2018-12-13T05:28:38.729Z,0.47
2018-12-13T05:29:38.671Z,0.50
2018-12-13T05:30:38.641Z,0.44
2018-12-13T05:31:38.572Z,0.36
2018-12-13T05:32:38.532Z,0.42
2018-12-13T05:33:38.511Z,0.42
2018-12-13T05:34:38.481Z,0.42
2018-12-13T05:35:38.389Z,0.36
2018-12-13T05:36:38.350Z,0.44
2018-12-13T05:37:38.293Z,0.42
2018-12-13T05:38:38.257Z,0.28
2018-12-13T05:39:38.207Z,0.28
2018-12-13T05:40:38.180Z,0.28
2018-12-13T05:41:38.108Z,0.42
2018-12-13T05:42:38.063Z,0.41
2018-12-13T05:43:38.058Z,0.44
2018-12-13T05:44:37.993Z,0.53
2018-12-13T05:45:37.935Z,0.49
2018-12-13T05:46:37.923Z,0.55
2018-12-13T05:47:37.848Z,0.46
2018-12-13T05:48:37.807Z,0.49
2018-12-13T05:49:37.971Z,0.42
2018-12-13T05:50:37.749Z,0.38
2018-12-13T05:51:37.659Z,0.38
2018-12-13T05:52:37.609Z,0.46
2018-12-13T05:53:37.701Z,0.41
2018-12-13T05:54:37.531Z,0.29
2018-12-13T05:55:37.501Z,0.31
2018-12-13T05:56:37.435Z,0.41
2018-12-13T05:57:37.390Z,0.31
2018-12-13T05:58:37.333Z,0.23
2018-12-13T05:59:37.289Z,0.29
2018-12-13T06:00:37.239Z,0.26
2018-12-13T06:01:37.200Z,0.28
2018-12-13T06:02:37.159Z,0.14
2018-12-13T06:03:37.128Z,0.15
2018-12-13T06:04:37.087Z,0.17
2018-12-13T06:05:37.012Z,0.14
2018-12-13T06:06:36.988Z,0.15
2018-12-13T06:07:36.932Z,0.33
2018-12-13T06:08:36.882Z,0.24
2018-12-13T06:09:36.830Z,0.29
2018-12-13T06:10:36.782Z,0.31
2018-12-13T06:11:36.727Z,0.32
2018-12-13T06:12:36.680Z,0.29
2018-12-13T06:13:36.635Z,0.32
2018-12-13T06:14:36.605Z,0.32
2018-12-13T06:15:36.526Z,0.42
2018-12-13T06:16:36.509Z,0.41
2018-12-13T06:17:36.452Z,0.42
2018-12-13T06:18:36.427Z,0.42
2018-12-13T06:19:36.355Z,0.36
2018-12-13T06:20:36.402Z,0.46
2018-12-13T06:21:36.975Z,0.42
2018-12-13T06:22:36.205Z,0.41
2018-12-13T06:23:36.187Z,0.38
2018-12-13T06:24:36.123Z,0.44
2018-12-13T06:25:36.084Z,0.42
2018-12-13T06:26:36.031Z,0.39
2018-12-13T06:27:35.985Z,0.39
2018-12-13T06:28:35.981Z,0.35
2018-12-13T06:29:41.689Z,0.42
2018-12-13T06:30:35.881Z,0.44
2018-12-13T06:31:35.825Z,0.38
2018-12-13T06:32:35.826Z,0.35
2018-12-13T06:33:35.709Z,0.38
2018-12-13T06:34:35.672Z,0.46
2018-12-13T06:35:35.632Z,0.42
2018-12-13T06:36:35.576Z,0.44
2018-12-13T06:37:35.521Z,0.39
2018-12-13T06:38:35.514Z,0.42
2018-12-13T06:39:35.434Z,0.42
2018-12-13T06:40:35.371Z,0.39
2018-12-13T06:41:35.348Z,0.42
2018-12-13T06:42:35.298Z,0.39
2018-12-13T06:43:35.285Z,0.46
2018-12-13T06:44:35.200Z,0.50
2018-12-13T06:45:35.144Z,0.57
2018-12-13T06:46:35.098Z,0.50
2018-12-13T06:47:35.102Z,0.41
2018-12-13T06:48:35.045Z,0.47
2018-12-13T06:49:34.967Z,0.42
2018-12-13T06:50:34.960Z,0.49
2018-12-13T06:51:34.871Z,0.47
2018-12-13T06:52:34.848Z,0.47
2018-12-13T06:53:34.826Z,0.50
2018-12-13T06:54:34.760Z,0.53
2018-12-13T06:55:34.687Z,0.53
2018-12-13T06:56:34.642Z,0.47
2018-12-13T06:57:34.661Z,0.47
2018-12-13T06:58:34.547Z,0.47
2018-12-13T06:59:34.535Z,0.44
2018-12-13T07:00:34.467Z,0.44
2018-12-13T07:01:34.473Z,0.50
2018-12-13T07:02:34.390Z,0.42
2018-12-13T07:03:34.330Z,0.38
2018-12-13T07:04:34.301Z,0.36
2018-12-13T07:05:34.255Z,0.44
2018-12-13T07:06:34.188Z,0.36
2018-12-13T07:07:34.156Z,0.35
2018-12-13T07:08:34.102Z,0.39
2018-12-13T07:09:34.066Z,0.36
2018-12-13T07:10:34.020Z,0.42
2018-12-13T07:11:33.964Z,0.41
2018-12-13T07:12:33.917Z,0.31
2018-12-13T07:13:33.877Z,0.32
2018-12-13T07:14:33.830Z,0.33
2018-12-13T07:15:33.776Z,0.23
2018-12-13T07:16:33.757Z,0.21
2018-12-13T07:17:33.712Z,0.26
2018-12-13T07:18:33.645Z,0.24
2018-12-13T07:19:33.583Z,0.23
2018-12-13T07:20:33.528Z,0.14
2018-12-13T07:21:33.481Z,0.17
2018-12-13T07:22:33.445Z,0.13
2018-12-13T07:23:33.409Z,0.20
2018-12-13T07:24:33.506Z,0.18
2018-12-13T07:25:33.312Z,0.18
2018-12-13T07:26:33.300Z,0.31
2018-12-13T07:27:33.209Z,0.29
2018-12-13T07:28:33.158Z,0.24
2018-12-13T07:29:33.114Z,0.29
2018-12-13T07:30:33.068Z,0.26
2018-12-13T07:31:33.040Z,0.39
2018-12-13T07:32:32.984Z,0.24
2018-12-13T07:33:32.953Z,0.29
2018-12-13T07:34:32.905Z,0.29
2018-12-13T07:35:32.867Z,0.29
2018-12-13T07:36:32.839Z,0.31
2018-12-13T07:37:32.766Z,0.41
2018-12-13T07:38:32.701Z,0.33
2018-12-13T07:39:32.689Z,0.41
2018-12-13T07:40:32.601Z,0.35
2018-12-13T07:41:32.565Z,0.36
2018-12-13T07:42:32.512Z,0.35
2018-12-13T07:43:32.463Z,0.39
2018-12-13T07:44:32.422Z,0.41
2018-12-13T07:45:32.406Z,0.35
2018-12-13T07:46:32.333Z,0.39
2018-12-13T07:47:32.301Z,0.38
2018-12-13T07:48:32.242Z,0.39
2018-12-13T07:49:32.195Z,0.41
2018-12-13T07:50:32.140Z,0.36
2018-12-13T07:51:32.123Z,0.39
2018-12-13T07:52:32.051Z,0.41
2018-12-13T07:53:32.020Z,0.49
2018-12-13T07:54:31.987Z,0.44
2018-12-13T07:55:31.956Z,0.41
2018-12-13T07:56:31.886Z,0.38
2018-12-13T07:57:31.847Z,0.46
2018-12-13T07:58:31.775Z,0.47
2018-12-13T07:59:31.757Z,0.46
2018-12-13T08:00:31.668Z,0.50
2018-12-13T08:01:32.594Z,0.49
2018-12-13T08:02:31.610Z,0.39
2018-12-13T08:03:31.551Z,0.39
2018-12-13T08:04:31.501Z,0.46
2018-12-13T08:05:31.491Z,0.47
2018-12-13T08:06:31.404Z,0.49
2018-12-13T08:07:31.352Z,0.57
2018-12-13T08:08:31.325Z,0.61
2018-12-13T08:09:31.279Z,0.61
2018-12-13T08:10:31.257Z,0.53
2018-12-13T08:11:31.164Z,0.53
2018-12-13T08:12:31.152Z,0.53
2018-12-13T08:13:31.090Z,0.61
2018-12-13T08:14:31.034Z,0.61
2018-12-13T08:15:30.988Z,0.60
2018-12-13T08:16:30.949Z,0.51
2018-12-13T08:17:30.891Z,0.55
2018-12-13T08:18:30.881Z,0.65
2018-12-13T08:19:30.839Z,0.65
2018-12-13T08:20:30.762Z,0.69
2018-12-13T08:21:30.719Z,0.70
2018-12-13T08:22:30.690Z,0.72
2018-12-13T08:23:30.644Z,0.66
2018-12-13T08:24:30.582Z,0.69
2018-12-13T08:25:30.560Z,0.65
2018-12-13T08:26:30.494Z,0.75
2018-12-13T08:27:30.451Z,0.76
2018-12-13T08:28:30.423Z,0.68
2018-12-13T08:29:30.369Z,0.69
2018-12-13T08:30:30.303Z,0.72
2018-12-13T08:31:30.244Z,0.78
2018-12-13T08:32:30.267Z,0.90
2018-12-13T08:33:30.189Z,0.93
2018-12-13T08:34:30.127Z,0.88
2018-12-13T08:35:30.087Z,0.79
2018-12-13T08:36:30.026Z,0.91
2018-12-13T08:37:29.985Z,0.88
2018-12-13T08:38:29.984Z,0.86
2018-12-13T08:39:29.907Z,1.00
2018-12-13T08:40:29.835Z,1.02
2018-12-13T08:41:29.802Z,1.02
2018-12-13T08:42:29.744Z,1.08
2018-12-13T08:43:29.719Z,1.11
2018-12-13T08:44:29.682Z,1.15
2018-12-13T08:45:29.647Z,1.22
2018-12-13T08:46:29.616Z,1.24
2018-12-13T08:47:29.529Z,1.34
2018-12-13T08:48:29.486Z,1.42
2018-12-13T08:49:29.470Z,1.48
2018-12-13T08:50:29.463Z,1.52
2018-12-13T08:51:29.344Z,1.66
2018-12-13T08:52:29.298Z,1.62
2018-12-13T08:53:29.292Z,1.44
2018-12-13T08:54:29.234Z,1.41
2018-12-13T08:55:29.179Z,1.51
2018-12-13T08:56:29.108Z,1.58
2018-12-13T08:57:29.073Z,1.54
2018-12-13T08:58:29.019Z,1.60
2018-12-13T08:59:29.001Z,1.77
2018-12-13T09:00:28.956Z,1.79
2018-12-13T09:01:28.877Z,1.73
2018-12-13T09:02:28.851Z,1.62
2018-12-13T09:03:28.838Z,1.59
2018-12-13T09:04:28.751Z,1.66
2018-12-13T09:05:28.785Z,1.48
2018-12-13T09:06:28.672Z,1.48
2018-12-13T09:07:28.606Z,1.52
2018-12-13T09:08:33.593Z,1.60
2018-12-13T09:09:28.525Z,1.66
2018-12-13T09:10:28.505Z,1.68
2018-12-13T09:11:28.442Z,1.80
2018-12-13T09:12:28.401Z,1.80
2018-12-13T09:13:28.348Z,1.99
2018-12-13T09:14:28.329Z,1.98
2018-12-13T09:15:28.249Z,2.00
2018-12-13T09:16:31.447Z,2.06
2018-12-13T09:17:28.169Z,2.27
2018-12-13T09:18:28.191Z,2.30
2018-12-13T09:19:28.192Z,2.25
2018-12-13T09:20:28.037Z,2.34
2018-12-13T09:21:27.988Z,2.24
2018-12-13T09:22:27.938Z,2.28
2018-12-13T09:23:27.921Z,2.10
2018-12-13T09:24:27.877Z,2.18
2018-12-13T09:25:27.812Z,2.30
2018-12-13T09:26:27.796Z,2.35
2018-12-13T09:27:27.770Z,2.31
2018-12-13T09:28:27.686Z,2.42
2018-12-13T09:29:27.646Z,2.38
2018-12-13T09:30:27.597Z,2.43
2018-12-13T09:31:27.579Z,2.30
2018-12-13T09:32:27.506Z,2.43
2018-12-13T09:33:27.607Z,2.61
2018-12-13T09:34:27.435Z,2.49
2018-12-13T09:35:27.364Z,2.36
2018-12-13T09:36:27.353Z,2.27
2018-12-13T09:37:27.296Z,2.27
2018-12-13T09:38:27.454Z,2.41
2018-12-13T09:39:27.214Z,2.45
2018-12-13T09:40:27.171Z,2.60
2018-12-13T09:41:27.100Z,2.52
2018-12-13T09:42:27.075Z,2.49
2018-12-13T09:43:27.043Z,2.57
2018-12-13T09:44:26.985Z,2.81
2018-12-13T09:45:26.929Z,2.85
2018-12-13T09:46:26.929Z,3.05
2018-12-13T09:47:26.838Z,3.42
2018-12-13T09:48:26.847Z,4.15
2018-12-13T09:49:26.761Z,4.23
2018-12-13T09:50:26.760Z,4.32
2018-12-13T09:51:26.710Z,4.40
2018-12-13T09:52:26.629Z,4.60
2018-12-13T09:53:26.608Z,4.72
2018-12-13T09:54:26.549Z,4.73
2018-12-13T09:55:26.495Z,4.44
2018-12-13T09:56:26.472Z,4.27
2018-12-13T09:57:26.400Z,3.97
2018-12-13T09:58:26.404Z,4.00
2018-12-13T09:59:26.342Z,4.08
2018-12-13T10:00:26.290Z,3.62
2018-12-13T10:01:26.303Z,3.35
2018-12-13T10:02:26.196Z,3.23
2018-12-13T10:03:26.211Z,3.24
2018-12-13T10:04:26.109Z,3.75
2018-12-13T10:05:26.094Z,3.57
2018-12-13T10:06:26.110Z,3.48
2018-12-13T10:07:26.022Z,3.83
2018-12-13T10:08:25.964Z,4.05
2018-12-13T10:09:25.927Z,4.72
2018-12-13T10:10:25.894Z,4.67
2018-12-13T10:11:25.822Z,4.94
2018-12-13T10:12:25.825Z,5.51
2018-12-13T10:13:25.822Z,5.96
2018-12-13T10:14:25.734Z,6.33
2018-12-13T10:15:31.818Z,6.18
2018-12-13T10:16:25.632Z,5.96
2018-12-13T10:17:25.595Z,4.77
2018-12-13T10:18:25.589Z,4.55
2018-12-13T10:19:25.542Z,4.60
2018-12-13T10:20:25.478Z,4.45
2018-12-13T10:21:25.450Z,4.84
2018-12-13T10:22:25.447Z,4.99
2018-12-13T10:23:25.342Z,4.92
2018-12-13T10:24:25.332Z,4.86
2018-12-13T10:25:25.288Z,4.72
2018-12-13T10:26:25.267Z,4.99
2018-12-13T10:27:25.221Z,4.48
2018-12-13T10:28:25.169Z,4.72
2018-12-13T10:29:25.149Z,4.60
2018-12-13T10:30:25.091Z,4.89
2018-12-13T10:31:25.054Z,5.22
2018-12-13T10:32:25.040Z,5.45
2018-12-13T10:33:24.987Z,5.48
2018-12-13T10:34:24.940Z,4.72
2018-12-13T10:35:24.899Z,4.50
2018-12-13T10:36:25.660Z,5.02
2018-12-13T10:37:24.829Z,5.42
2018-12-13T10:38:24.807Z,5.58
2018-12-13T10:39:24.757Z,5.00
2018-12-13T10:40:24.719Z,4.86
2018-12-13T10:41:24.700Z,4.45
2018-12-13T10:42:24.643Z,4.27
2018-12-13T10:43:24.623Z,4.02
2018-12-13T10:44:24.571Z,4.02
2018-12-13T10:45:24.533Z,3.76
2018-12-13T10:46:24.525Z,3.73
2018-12-13T10:47:24.442Z,3.60
2018-12-13T10:48:24.424Z,3.55
2018-12-13T10:49:24.385Z,3.20
2018-12-13T10:50:24.331Z,3.28
2018-12-13T10:51:24.314Z,3.15
2018-12-13T10:52:24.276Z,3.08
2018-12-13T10:53:24.229Z,3.15
2018-12-13T10:54:24.202Z,3.29
2018-12-13T10:55:24.133Z,3.23
2018-12-13T10:56:24.134Z,3.28
2018-12-13T10:57:24.049Z,3.28
2018-12-13T10:58:24.023Z,3.15
2018-12-13T10:59:23.997Z,2.92
2018-12-13T11:00:23.947Z,2.90
2018-12-13T11:01:23.908Z,2.67
2018-12-13T11:02:23.859Z,2.78
2018-12-13T11:03:23.820Z,2.56
2018-12-13T11:04:23.770Z,2.60
2018-12-13T11:05:23.750Z,2.60
2018-12-13T11:06:23.706Z,2.69
2018-12-13T11:07:23.671Z,2.79
2018-12-13T11:08:23.620Z,2.74
2018-12-13T11:09:23.570Z,2.59
2018-12-13T11:10:25.535Z,2.63
2018-12-13T11:11:23.489Z,2.45
2018-12-13T11:12:23.448Z,2.30
2018-12-13T11:13:23.425Z,2.28
2018-12-13T11:14:23.389Z,2.34
2018-12-13T11:15:23.319Z,2.25
2018-12-13T11:16:23.292Z,2.28
2018-12-13T11:17:23.305Z,2.28
2018-12-13T11:18:23.214Z,2.46
2018-12-13T11:19:23.156Z,2.30
2018-12-13T11:20:23.150Z,2.28
2018-12-13T11:21:23.079Z,2.24
2018-12-13T11:22:23.057Z,2.30
2018-12-13T11:23:22.979Z,2.23
2018-12-13T11:24:22.952Z,2.16
2018-12-13T11:25:22.911Z,1.99
2018-12-13T11:26:22.857Z,2.10
2018-12-13T11:27:22.845Z,2.16
2018-12-13T11:28:22.783Z,1.98
2018-12-13T11:29:22.765Z,1.98
2018-12-13T11:30:22.710Z,2.17
2018-12-13T11:31:22.677Z,2.28
2018-12-13T11:32:22.603Z,2.23
2018-12-13T11:33:22.556Z,2.21
2018-12-13T11:34:22.524Z,2.17
2018-12-13T11:35:22.516Z,2.24
2018-12-13T11:36:22.443Z,2.31
2018-12-13T11:37:22.415Z,2.36
2018-12-13T11:38:22.349Z,2.41
2018-12-13T11:39:22.319Z,2.43
2018-12-13T11:40:22.251Z,2.49
2018-12-13T11:41:22.213Z,2.54
2018-12-13T11:42:22.164Z,2.57
2018-12-13T11:43:22.132Z,2.45
2018-12-13T11:44:22.082Z,2.53
2018-12-13T11:45:22.093Z,2.43
2018-12-13T11:46:22.014Z,2.43
2018-12-13T11:47:22.457Z,2.61
2018-12-13T11:48:21.913Z,2.43
2018-12-13T11:49:21.882Z,2.49
2018-12-13T11:50:21.831Z,2.42
2018-12-13T11:51:21.810Z,2.36
2018-12-13T11:52:21.739Z,2.43
2018-12-13T11:53:21.687Z,2.52
2018-12-13T11:54:21.656Z,2.48
2018-12-13T11:55:21.662Z,2.34
2018-12-13T11:56:21.587Z,2.31
2018-12-13T11:57:21.579Z,2.28
2018-12-13T11:58:21.486Z,2.24
2018-12-13T11:59:21.436Z,2.25
2018-12-13T12:00:21.379Z,2.25
2018-12-13T12:01:21.351Z,2.35
2018-12-13T12:02:24.161Z,2.28
2018-12-13T12:03:21.276Z,2.12
2018-12-13T12:04:21.219Z,2.03
2018-12-13T12:05:21.181Z,2.17
2018-12-13T12:06:21.162Z,2.23
2018-12-13T12:07:21.089Z,2.27
2018-12-13T12:08:21.037Z,2.39
2018-12-13T12:09:21.033Z,2.42
2018-12-13T12:10:20.982Z,2.53
2018-12-13T12:11:20.926Z,2.72
2018-12-13T12:12:20.870Z,2.81
2018-12-13T12:13:20.821Z,2.82
2018-12-13T12:14:20.810Z,2.77
2018-12-13T12:15:20.751Z,2.97
2018-12-13T12:16:20.704Z,3.05
2018-12-13T12:17:20.648Z,3.15
2018-12-13T12:18:20.621Z,3.36
2018-12-13T12:19:20.600Z,3.40
2018-12-13T12:20:20.515Z,3.43
2018-12-13T12:21:20.530Z,3.55
2018-12-13T12:22:20.423Z,3.55
2018-12-13T12:23:20.421Z,3.52
2018-12-13T12:24:20.348Z,3.39
2018-12-13T12:25:20.311Z,3.21
2018-12-13T12:26:20.281Z,2.96
2018-12-13T12:27:20.212Z,2.72
2018-12-13T12:28:20.181Z,2.64
2018-12-13T12:29:20.138Z,2.56
2018-12-13T12:30:20.096Z,2.53
2018-12-13T12:31:20.041Z,2.48
2018-12-13T12:32:20.009Z,2.46
2018-12-13T12:33:19.959Z,2.45
2018-12-13T12:34:19.917Z,2.45
2018-12-13T12:35:19.866Z,2.49
2018-12-13T12:36:19.828Z,2.56
2018-12-13T12:37:19.782Z,2.48
2018-12-13T12:38:19.730Z,2.43
2018-12-13T12:39:19.669Z,2.45
2018-12-13T12:40:19.659Z,2.42
2018-12-13T12:41:19.653Z,2.45
2018-12-13T12:42:19.545Z,2.45
2018-12-13T12:43:19.508Z,2.53
2018-12-13T12:44:19.462Z,2.35
2018-12-13T12:45:19.421Z,2.42
2018-12-13T12:46:19.383Z,2.36
2018-12-13T12:47:19.366Z,2.45
2018-12-13T12:48:19.428Z,2.46
2018-12-13T12:49:19.293Z,2.57
2018-12-13T12:50:19.373Z,2.64
2018-12-13T12:51:19.197Z,2.72
2018-12-13T12:52:19.139Z,2.72
2018-12-13T12:53:19.108Z,2.72
2018-12-13T12:54:19.112Z,2.84
2018-12-13T12:55:19.012Z,2.78
2018-12-13T12:56:18.962Z,2.75
2018-12-13T12:57:18.929Z,2.60
2018-12-13T12:58:18.868Z,2.54
2018-12-13T12:59:18.816Z,2.53
2018-12-13T13:00:18.766Z,2.41
2018-12-13T13:01:18.734Z,2.43
2018-12-13T13:02:18.696Z,2.45
2018-12-13T13:03:18.672Z,2.34
2018-12-13T13:04:18.623Z,2.39
2018-12-13T13:05:18.552Z,2.31
2018-12-13T13:06:18.568Z,2.25
2018-12-13T13:07:18.508Z,2.20
2018-12-13T13:08:18.459Z,2.27
2018-12-13T13:09:24.828Z,2.06
2018-12-13T13:10:18.403Z,2.09
2018-12-13T13:11:18.306Z,2.06
2018-12-13T13:12:18.240Z,2.06
2018-12-13T13:13:18.198Z,2.03
2018-12-13T13:14:18.155Z,1.99
2018-12-13T13:15:18.120Z,1.95
2018-12-13T13:16:18.060Z,2.02
2018-12-13T13:17:18.021Z,1.99
2018-12-13T13:18:17.980Z,2.06
2018-12-13T13:19:17.949Z,2.07
2018-12-13T13:20:17.891Z,2.17
2018-12-13T13:21:17.857Z,2.23
2018-12-13T13:22:17.797Z,2.41
2018-12-13T13:23:17.760Z,2.41
2018-12-13T13:24:17.807Z,2.34
2018-12-13T13:25:17.685Z,2.30
2018-12-13T13:26:17.647Z,2.35
2018-12-13T13:27:17.584Z,2.30
2018-12-13T13:28:17.541Z,2.28
2018-12-13T13:29:17.519Z,2.31